KLM163 EHAM-TNCC
Flight info
| Callsign | KLM163 |
|---|---|
| Flight time | N/A |
| Altitude | 32000 |
| Route | BERGI L60 PENIL M144 BAGSO DCT GIMRO DCT LIMRI/M084F340 DCT 52N020W 51N030W 49N040W 47N050W DCT PORTI DCT LOMPI M202 JEBBY/M084F360 DCT 40N060W DCT BDA DCT GECAL L458 CHEDR/N0491F360 L458 THANK DCT SCAPA SCAPA1B |
| Aircraft | B77W/H-SDE1E2E3FGHIJ2J3J4J5M1RWXY/LB1D1 |
Departure
| Time | N/A |
|---|---|
| Airport | Amsterdam Airport Schiphol (EHAM) |
Arrival
| Time | 2026-05-08 17:24 |
|---|---|
| Airport | Hato International Airport (TNCC) |
| Time | Latitude | Longitude | Altitude | Speed | Heading |
|---|---|---|---|---|---|
| 2026-05-08 14:51 | 31.77985 | -64.83892 | 36016 ft | 484 kts | 199° |
| 2026-05-08 14:51 | 31.74691 | -64.84726 | 36017 ft | 483 kts | 199° |
| 2026-05-08 14:52 | 31.64824 | -64.87221 | 36020 ft | 483 kts | 199° |
| 2026-05-08 14:53 | 31.58253 | -64.88880 | 36018 ft | 483 kts | 199° |
| 2026-05-08 14:53 | 31.51718 | -64.90528 | 36022 ft | 483 kts | 199° |
| 2026-05-08 14:54 | 31.45157 | -64.92179 | 36025 ft | 483 kts | 199° |
| 2026-05-08 14:54 | 31.38575 | -64.93834 | 36028 ft | 483 kts | 199° |
| 2026-05-08 14:55 | 31.31998 | -64.95485 | 36028 ft | 483 kts | 199° |
| 2026-05-08 14:55 | 31.25422 | -64.97133 | 36031 ft | 483 kts | 199° |
| 2026-05-08 14:56 | 31.18841 | -64.98780 | 36030 ft | 483 kts | 199° |
| 2026-05-08 14:56 | 31.12265 | -65.00423 | 36030 ft | 483 kts | 199° |
| 2026-05-08 14:57 | 31.05695 | -65.02063 | 36033 ft | 483 kts | 199° |
| 2026-05-08 14:57 | 30.99117 | -65.03703 | 36037 ft | 483 kts | 199° |
| 2026-05-08 14:58 | 30.92569 | -65.05333 | 36039 ft | 484 kts | 199° |
| 2026-05-08 14:58 | 30.85973 | -65.06972 | 36042 ft | 484 kts | 199° |
| 2026-05-08 14:59 | 30.79372 | -65.08610 | 36043 ft | 485 kts | 199° |
| 2026-05-08 14:59 | 30.69451 | -65.11069 | 36047 ft | 486 kts | 198° |
| 2026-05-08 15:00 | 30.62822 | -65.12708 | 36045 ft | 488 kts | 198° |
| 2026-05-08 15:00 | 30.56168 | -65.14352 | 36049 ft | 489 kts | 198° |
| 2026-05-08 15:01 | 30.49504 | -65.15995 | 36045 ft | 490 kts | 198° |
| 2026-05-08 15:01 | 30.42819 | -65.17641 | 36054 ft | 491 kts | 198° |
| 2026-05-08 15:02 | 30.36115 | -65.19290 | 36053 ft | 493 kts | 198° |
| 2026-05-08 15:02 | 30.29452 | -65.20926 | 36055 ft | 493 kts | 198° |
| 2026-05-08 15:03 | 30.22727 | -65.22575 | 36049 ft | 494 kts | 198° |
| 2026-05-08 15:03 | 30.15991 | -65.24224 | 36061 ft | 494 kts | 198° |
| 2026-05-08 15:04 | 30.09289 | -65.25863 | 36058 ft | 494 kts | 198° |
| 2026-05-08 15:04 | 30.02559 | -65.27506 | 36057 ft | 494 kts | 198° |
| 2026-05-08 15:05 | 29.95828 | -65.29148 | 36058 ft | 494 kts | 198° |
| 2026-05-08 15:05 | 29.89100 | -65.30786 | 36061 ft | 493 kts | 198° |
| 2026-05-08 15:06 | 29.82379 | -65.32421 | 36062 ft | 493 kts | 198° |
| 2026-05-08 15:06 | 29.75719 | -65.34039 | 36064 ft | 493 kts | 198° |
| 2026-05-08 15:07 | 29.68996 | -65.35669 | 36069 ft | 493 kts | 198° |
| 2026-05-08 15:07 | 29.62269 | -65.37299 | 36064 ft | 493 kts | 198° |
| 2026-05-08 15:08 | 29.56685 | -65.38650 | 36067 ft | 493 kts | 198° |
| 2026-05-08 15:08 | 29.48825 | -65.40550 | 36068 ft | 494 kts | 198° |
| 2026-05-08 15:09 | 29.42064 | -65.42114 | 36070 ft | 497 kts | 194° |
| 2026-05-08 15:09 | 29.35177 | -65.42833 | 36078 ft | 502 kts | 189° |
| 2026-05-08 15:10 | 29.28207 | -65.43359 | 36072 ft | 502 kts | 189° |
| 2026-05-08 15:10 | 29.21225 | -65.43905 | 36073 ft | 502 kts | 189° |
| 2026-05-08 15:11 | 29.14249 | -65.44485 | 36073 ft | 502 kts | 189° |
| 2026-05-08 15:11 | 29.07278 | -65.45078 | 36069 ft | 503 kts | 189° |
| 2026-05-08 15:12 | 29.00297 | -65.45672 | 36072 ft | 503 kts | 189° |
| 2026-05-08 15:12 | 28.93312 | -65.46263 | 36075 ft | 503 kts | 189° |
| 2026-05-08 15:13 | 28.86331 | -65.46852 | 36075 ft | 503 kts | 189° |
| 2026-05-08 15:13 | 28.79356 | -65.47439 | 36080 ft | 503 kts | 189° |
| 2026-05-08 15:14 | 28.72369 | -65.48027 | 36080 ft | 503 kts | 189° |
| 2026-05-08 15:14 | 28.65386 | -65.48614 | 36081 ft | 503 kts | 189° |
| 2026-05-08 15:15 | 28.58439 | -65.49197 | 36084 ft | 503 kts | 189° |
| 2026-05-08 15:15 | 28.51456 | -65.49782 | 36082 ft | 503 kts | 189° |
| 2026-05-08 15:16 | 28.44459 | -65.50368 | 36083 ft | 504 kts | 189° |
| 2026-05-08 15:16 | 28.37466 | -65.50952 | 36077 ft | 504 kts | 189° |
| 2026-05-08 15:17 | 28.30470 | -65.51536 | 36079 ft | 504 kts | 189° |
| 2026-05-08 15:17 | 28.23476 | -65.52119 | 36081 ft | 504 kts | 189° |
| 2026-05-08 15:18 | 28.16474 | -65.52702 | 36077 ft | 504 kts | 189° |
| 2026-05-08 15:18 | 28.09476 | -65.53284 | 36081 ft | 504 kts | 189° |
| 2026-05-08 15:19 | 28.02516 | -65.53861 | 36083 ft | 505 kts | 189° |
| 2026-05-08 15:19 | 27.95494 | -65.54444 | 36088 ft | 505 kts | 189° |
| 2026-05-08 15:20 | 27.88478 | -65.55024 | 36086 ft | 505 kts | 189° |
| 2026-05-08 15:20 | 27.81474 | -65.55604 | 36085 ft | 505 kts | 188° |
| 2026-05-08 15:21 | 27.74464 | -65.56183 | 36087 ft | 505 kts | 188° |
| 2026-05-08 15:21 | 27.67497 | -65.56757 | 36085 ft | 505 kts | 188° |
| 2026-05-08 15:22 | 27.60446 | -65.57338 | 36089 ft | 505 kts | 188° |
| 2026-05-08 15:22 | 27.53491 | -65.57911 | 36089 ft | 504 kts | 188° |
| 2026-05-08 15:23 | 27.46483 | -65.58486 | 36088 ft | 504 kts | 188° |
| 2026-05-08 15:23 | 27.39483 | -65.59061 | 36094 ft | 504 kts | 188° |
| 2026-05-08 15:24 | 27.32486 | -65.59634 | 36090 ft | 504 kts | 188° |
| 2026-05-08 15:24 | 27.25477 | -65.60208 | 36094 ft | 504 kts | 188° |
| 2026-05-08 15:25 | 27.18470 | -65.60781 | 36095 ft | 504 kts | 188° |
| 2026-05-08 15:25 | 27.11471 | -65.61352 | 36093 ft | 504 kts | 188° |
| 2026-05-08 15:26 | 27.04477 | -65.61923 | 36095 ft | 504 kts | 188° |
| 2026-05-08 15:26 | 26.97469 | -65.62494 | 36094 ft | 504 kts | 188° |
| 2026-05-08 15:27 | 26.90521 | -65.63059 | 36093 ft | 504 kts | 188° |
| 2026-05-08 15:27 | 26.83522 | -65.63628 | 36098 ft | 504 kts | 187° |
| 2026-05-08 15:28 | 26.76522 | -65.64196 | 36095 ft | 504 kts | 187° |
| 2026-05-08 15:28 | 26.69529 | -65.64763 | 36098 ft | 504 kts | 187° |
| 2026-05-08 15:29 | 26.62521 | -65.65330 | 36098 ft | 504 kts | 187° |
| 2026-05-08 15:29 | 26.55573 | -65.65892 | 36099 ft | 504 kts | 187° |
| 2026-05-08 15:30 | 26.48581 | -65.66456 | 36102 ft | 504 kts | 187° |
| 2026-05-08 15:30 | 26.41585 | -65.67021 | 36099 ft | 504 kts | 187° |
| 2026-05-08 15:31 | 26.34593 | -65.67584 | 36096 ft | 504 kts | 187° |
| 2026-05-08 15:31 | 26.27599 | -65.68147 | 36096 ft | 504 kts | 187° |
| 2026-05-08 15:32 | 26.20580 | -65.68711 | 36098 ft | 505 kts | 186° |
| 2026-05-08 15:32 | 26.13571 | -65.69273 | 36098 ft | 505 kts | 186° |
| 2026-05-08 15:33 | 26.06561 | -65.69835 | 36097 ft | 505 kts | 186° |
| 2026-05-08 15:33 | 25.99815 | -65.70375 | 36097 ft | 506 kts | 186° |
| 2026-05-08 15:34 | 25.93977 | -65.70842 | 36096 ft | 506 kts | 186° |
| 2026-05-08 15:34 | 25.86946 | -65.71404 | 36096 ft | 507 kts | 186° |
| 2026-05-08 15:35 | 25.79908 | -65.71966 | 36099 ft | 507 kts | 186° |
| 2026-05-08 15:35 | 25.72876 | -65.72526 | 36100 ft | 507 kts | 186° |
| 2026-05-08 15:36 | 25.65834 | -65.73087 | 36097 ft | 507 kts | 186° |
| 2026-05-08 15:36 | 25.58836 | -65.73643 | 36097 ft | 507 kts | 186° |
| 2026-05-08 15:37 | 25.51782 | -65.74203 | 36102 ft | 507 kts | 186° |
| 2026-05-08 15:37 | 25.44741 | -65.74762 | 36099 ft | 507 kts | 186° |
| 2026-05-08 15:38 | 25.37693 | -65.75320 | 36097 ft | 508 kts | 186° |
| 2026-05-08 15:38 | 25.30637 | -65.75879 | 36097 ft | 508 kts | 186° |
| 2026-05-08 15:39 | 25.23606 | -65.76435 | 36098 ft | 508 kts | 186° |
| 2026-05-08 15:39 | 25.16533 | -65.76993 | 36104 ft | 508 kts | 186° |
| 2026-05-08 15:40 | 25.09522 | -65.77546 | 36098 ft | 508 kts | 186° |
| 2026-05-08 15:40 | 25.02410 | -65.78107 | 36099 ft | 509 kts | 186° |
| 2026-05-08 15:41 | 24.95400 | -65.78658 | 36101 ft | 509 kts | 186° |
| 2026-05-08 15:41 | 24.88333 | -65.79213 | 36099 ft | 509 kts | 186° |
| 2026-05-08 15:42 | 24.81274 | -65.79767 | 36099 ft | 509 kts | 186° |
| 2026-05-08 15:42 | 24.74214 | -65.80320 | 36094 ft | 509 kts | 186° |
| 2026-05-08 15:43 | 24.67144 | -65.80874 | 36099 ft | 509 kts | 186° |
| 2026-05-08 15:43 | 24.60078 | -65.81426 | 36102 ft | 509 kts | 186° |
| 2026-05-08 15:44 | 24.52998 | -65.81979 | 36099 ft | 509 kts | 186° |
| 2026-05-08 15:44 | 24.45935 | -65.82530 | 36097 ft | 509 kts | 186° |
| 2026-05-08 15:45 | 24.38867 | -65.83081 | 36100 ft | 509 kts | 186° |
| 2026-05-08 15:45 | 24.31841 | -65.83628 | 36102 ft | 509 kts | 186° |
| 2026-05-08 15:46 | 24.24720 | -65.84182 | 36098 ft | 509 kts | 186° |
| 2026-05-08 15:46 | 24.17697 | -65.84728 | 36097 ft | 509 kts | 186° |
| 2026-05-08 15:47 | 24.10618 | -65.85277 | 36097 ft | 510 kts | 186° |
| 2026-05-08 15:47 | 24.03545 | -65.85825 | 36096 ft | 510 kts | 186° |
| 2026-05-08 15:48 | 23.92917 | -65.86648 | 36095 ft | 510 kts | 186° |
| 2026-05-08 15:49 | 23.85838 | -65.87195 | 36097 ft | 510 kts | 186° |
| 2026-05-08 15:49 | 23.78747 | -65.87742 | 36098 ft | 510 kts | 186° |
| 2026-05-08 15:50 | 23.71666 | -65.88288 | 36095 ft | 510 kts | 186° |
| 2026-05-08 15:50 | 23.64576 | -65.88835 | 36094 ft | 510 kts | 186° |
| 2026-05-08 15:51 | 23.57500 | -65.89379 | 36098 ft | 510 kts | 186° |
| 2026-05-08 15:51 | 23.50454 | -65.89921 | 36097 ft | 510 kts | 186° |
| 2026-05-08 15:52 | 23.43361 | -65.90466 | 36094 ft | 511 kts | 186° |
| 2026-05-08 15:52 | 23.36265 | -65.91010 | 36095 ft | 511 kts | 186° |
| 2026-05-08 15:53 | 23.29172 | -65.91554 | 36095 ft | 511 kts | 186° |
| 2026-05-08 15:53 | 23.22070 | -65.92097 | 36093 ft | 511 kts | 186° |
| 2026-05-08 15:54 | 23.14978 | -65.92639 | 36093 ft | 511 kts | 186° |
| 2026-05-08 15:54 | 23.07931 | -65.93178 | 36091 ft | 511 kts | 186° |
| 2026-05-08 15:55 | 23.00838 | -65.93719 | 36090 ft | 511 kts | 186° |
| 2026-05-08 15:55 | 22.90188 | -65.94531 | 36088 ft | 511 kts | 186° |
| 2026-05-08 15:56 | 22.83084 | -65.95071 | 36089 ft | 512 kts | 186° |
| 2026-05-08 15:56 | 22.75977 | -65.95611 | 36089 ft | 512 kts | 186° |
| 2026-05-08 15:57 | 22.68868 | -65.96151 | 36092 ft | 512 kts | 186° |
| 2026-05-08 15:57 | 22.61760 | -65.96691 | 36091 ft | 512 kts | 186° |
| 2026-05-08 15:58 | 22.54633 | -65.97231 | 36091 ft | 513 kts | 186° |
| 2026-05-08 15:58 | 22.47523 | -65.97769 | 36087 ft | 513 kts | 186° |
| 2026-05-08 15:59 | 22.40395 | -65.98308 | 36090 ft | 513 kts | 186° |
| 2026-05-08 15:59 | 22.33319 | -65.98843 | 36089 ft | 513 kts | 185° |
| 2026-05-08 16:00 | 22.26185 | -65.99381 | 36091 ft | 514 kts | 185° |
| 2026-05-08 16:00 | 22.19049 | -65.99919 | 36089 ft | 514 kts | 185° |
| 2026-05-08 16:01 | 22.11910 | -66.00458 | 36087 ft | 515 kts | 185° |
| 2026-05-08 16:01 | 22.04744 | -66.00996 | 36099 ft | 516 kts | 185° |
| 2026-05-08 16:02 | 21.97581 | -66.01526 | 36091 ft | 516 kts | 185° |
| 2026-05-08 16:02 | 21.90408 | -66.02051 | 36087 ft | 517 kts | 185° |
| 2026-05-08 16:03 | 21.83240 | -66.02576 | 36088 ft | 517 kts | 185° |
| 2026-05-08 16:03 | 21.76039 | -66.03103 | 36082 ft | 517 kts | 185° |
| 2026-05-08 16:04 | 21.68900 | -66.03626 | 36081 ft | 518 kts | 185° |
| 2026-05-08 16:04 | 21.61716 | -66.04152 | 36082 ft | 518 kts | 185° |
| 2026-05-08 16:05 | 21.54527 | -66.04677 | 36085 ft | 518 kts | 185° |
| 2026-05-08 16:05 | 21.47334 | -66.05236 | 36082 ft | 517 kts | 187° |
| 2026-05-08 16:06 | 21.40289 | -66.06688 | 36085 ft | 516 kts | 195° |
| 2026-05-08 16:06 | 21.33333 | -66.08603 | 36082 ft | 516 kts | 196° |
| 2026-05-08 16:07 | 21.26361 | -66.10515 | 36079 ft | 517 kts | 195° |
| 2026-05-08 16:07 | 21.19393 | -66.12384 | 36079 ft | 517 kts | 195° |
| 2026-05-08 16:08 | 21.12442 | -66.14227 | 36077 ft | 517 kts | 195° |
| 2026-05-08 16:08 | 21.05443 | -66.16079 | 36077 ft | 518 kts | 195° |
| 2026-05-08 16:09 | 20.99578 | -66.17632 | 36079 ft | 518 kts | 195° |
| 2026-05-08 16:09 | 20.91429 | -66.19788 | 36076 ft | 519 kts | 195° |
| 2026-05-08 16:10 | 20.84431 | -66.21639 | 36071 ft | 519 kts | 195° |
| 2026-05-08 16:10 | 20.77408 | -66.23494 | 36071 ft | 519 kts | 195° |
| 2026-05-08 16:11 | 20.70381 | -66.25349 | 36072 ft | 519 kts | 195° |
| 2026-05-08 16:11 | 20.63365 | -66.27199 | 36070 ft | 520 kts | 194° |
| 2026-05-08 16:12 | 20.56340 | -66.29049 | 36071 ft | 520 kts | 194° |
| 2026-05-08 16:12 | 20.49350 | -66.30889 | 36072 ft | 520 kts | 194° |
| 2026-05-08 16:13 | 20.42318 | -66.32738 | 36070 ft | 521 kts | 194° |
| 2026-05-08 16:13 | 20.35258 | -66.34592 | 36070 ft | 521 kts | 194° |
| 2026-05-08 16:14 | 20.28245 | -66.36433 | 36066 ft | 521 kts | 194° |
| 2026-05-08 16:14 | 20.21196 | -66.38281 | 36069 ft | 521 kts | 194° |
| 2026-05-08 16:15 | 20.14140 | -66.40129 | 36067 ft | 522 kts | 194° |
| 2026-05-08 16:15 | 20.07085 | -66.41975 | 36065 ft | 522 kts | 194° |
| 2026-05-08 16:16 | 20.00014 | -66.43824 | 36062 ft | 523 kts | 194° |
| 2026-05-08 16:16 | 19.92976 | -66.45663 | 36062 ft | 523 kts | 194° |
| 2026-05-08 16:17 | 19.87052 | -66.47209 | 36062 ft | 524 kts | 194° |
| 2026-05-08 16:17 | 19.78818 | -66.49356 | 36064 ft | 524 kts | 194° |
| 2026-05-08 16:18 | 19.71728 | -66.51202 | 36061 ft | 524 kts | 194° |
| 2026-05-08 16:18 | 19.64626 | -66.53051 | 36061 ft | 525 kts | 194° |
| 2026-05-08 16:19 | 19.57535 | -66.54894 | 36060 ft | 525 kts | 194° |
| 2026-05-08 16:19 | 19.51636 | -66.56427 | 36062 ft | 525 kts | 194° |
| 2026-05-08 16:20 | 19.44537 | -66.58270 | 36057 ft | 525 kts | 194° |
| 2026-05-08 16:20 | 19.37443 | -66.60110 | 36057 ft | 525 kts | 194° |
| 2026-05-08 16:21 | 19.30333 | -66.61952 | 36056 ft | 525 kts | 194° |
| 2026-05-08 16:21 | 19.23225 | -66.63792 | 36054 ft | 526 kts | 194° |
| 2026-05-08 16:22 | 19.16118 | -66.65631 | 36053 ft | 526 kts | 194° |
| 2026-05-08 16:22 | 19.09053 | -66.67456 | 36055 ft | 526 kts | 194° |
| 2026-05-08 16:23 | 19.01897 | -66.69304 | 36053 ft | 526 kts | 194° |
| 2026-05-08 16:23 | 18.94793 | -66.71137 | 36048 ft | 526 kts | 194° |
| 2026-05-08 16:24 | 18.87723 | -66.72959 | 36045 ft | 526 kts | 194° |
| 2026-05-08 16:24 | 18.80609 | -66.74791 | 36045 ft | 526 kts | 194° |
| 2026-05-08 16:25 | 18.73477 | -66.76626 | 36047 ft | 527 kts | 194° |
| 2026-05-08 16:25 | 18.66349 | -66.78458 | 36043 ft | 527 kts | 194° |
| 2026-05-08 16:26 | 18.59234 | -66.80286 | 36045 ft | 527 kts | 194° |
| 2026-05-08 16:26 | 18.52080 | -66.82122 | 36051 ft | 527 kts | 194° |
| 2026-05-08 16:27 | 18.44954 | -66.83948 | 36053 ft | 528 kts | 193° |
| 2026-05-08 16:27 | 18.37855 | -66.85767 | 36041 ft | 528 kts | 194° |
| 2026-05-08 16:28 | 18.30708 | -66.87597 | 36046 ft | 528 kts | 193° |
| 2026-05-08 16:28 | 18.23567 | -66.89424 | 36051 ft | 529 kts | 193° |
| 2026-05-08 16:29 | 18.16415 | -66.91251 | 36038 ft | 528 kts | 193° |
| 2026-05-08 16:29 | 18.09272 | -66.93075 | 36041 ft | 527 kts | 193° |
| 2026-05-08 16:30 | 18.02146 | -66.94893 | 36032 ft | 527 kts | 193° |
| 2026-05-08 16:30 | 17.95015 | -66.96710 | 36051 ft | 527 kts | 193° |
| 2026-05-08 16:31 | 17.87881 | -66.98527 | 36030 ft | 528 kts | 193° |
| 2026-05-08 16:31 | 17.80750 | -67.00342 | 36039 ft | 528 kts | 193° |
| 2026-05-08 16:32 | 17.73599 | -67.02160 | 36037 ft | 528 kts | 193° |
| 2026-05-08 16:32 | 17.66453 | -67.03976 | 36033 ft | 529 kts | 193° |
| 2026-05-08 16:33 | 17.59335 | -67.05783 | 36029 ft | 529 kts | 193° |
| 2026-05-08 16:33 | 17.52184 | -67.07597 | 36041 ft | 529 kts | 193° |
| 2026-05-08 16:34 | 17.45015 | -67.09414 | 36032 ft | 529 kts | 193° |
| 2026-05-08 16:34 | 17.37854 | -67.11227 | 36032 ft | 529 kts | 193° |
| 2026-05-08 16:35 | 17.30687 | -67.13040 | 36023 ft | 530 kts | 193° |
| 2026-05-08 16:35 | 17.23510 | -67.14855 | 36025 ft | 530 kts | 193° |
| 2026-05-08 16:36 | 17.16394 | -67.16653 | 36034 ft | 530 kts | 193° |
| 2026-05-08 16:36 | 17.09232 | -67.18461 | 36030 ft | 530 kts | 193° |
| 2026-05-08 16:37 | 17.02140 | -67.20251 | 35999 ft | 516 kts | 193° |
| 2026-05-08 16:37 | 16.95192 | -67.22002 | 36020 ft | 513 kts | 193° |
| 2026-05-08 16:38 | 16.88239 | -67.23752 | 36024 ft | 514 kts | 193° |
| 2026-05-08 16:38 | 16.81276 | -67.25504 | 36023 ft | 516 kts | 193° |
| 2026-05-08 16:39 | 16.74277 | -67.27264 | 36019 ft | 517 kts | 193° |
| 2026-05-08 16:39 | 16.67266 | -67.29025 | 36017 ft | 519 kts | 193° |
| 2026-05-08 16:40 | 16.60242 | -67.30789 | 36016 ft | 519 kts | 193° |
| 2026-05-08 16:40 | 16.53261 | -67.32541 | 36014 ft | 520 kts | 193° |
| 2026-05-08 16:41 | 16.46235 | -67.34302 | 36010 ft | 519 kts | 193° |
| 2026-05-08 16:42 | 16.35680 | -67.36946 | 36015 ft | 519 kts | 193° |
| 2026-05-08 16:42 | 16.28651 | -67.38705 | 36011 ft | 518 kts | 193° |
| 2026-05-08 16:43 | 16.21684 | -67.40447 | 36012 ft | 518 kts | 193° |
| 2026-05-08 16:43 | 16.14678 | -67.42198 | 36011 ft | 518 kts | 193° |
| 2026-05-08 16:44 | 16.07669 | -67.43948 | 36012 ft | 518 kts | 193° |
| 2026-05-08 16:44 | 16.00660 | -67.45697 | 36014 ft | 518 kts | 193° |
| 2026-05-08 16:45 | 15.93650 | -67.47445 | 36009 ft | 518 kts | 193° |
| 2026-05-08 16:45 | 15.86640 | -67.49192 | 36007 ft | 518 kts | 193° |
| 2026-05-08 16:46 | 15.79784 | -67.51486 | 36012 ft | 518 kts | 205° |
| 2026-05-08 16:46 | 15.73354 | -67.54886 | 36001 ft | 518 kts | 208° |
| 2026-05-08 16:47 | 15.66979 | -67.58406 | 36005 ft | 519 kts | 208° |
| 2026-05-08 16:47 | 15.60551 | -67.61823 | 36006 ft | 519 kts | 207° |
| 2026-05-08 16:48 | 15.54122 | -67.65146 | 36003 ft | 519 kts | 207° |
| 2026-05-08 16:48 | 15.47641 | -67.68473 | 36000 ft | 519 kts | 207° |
| 2026-05-08 16:49 | 15.41170 | -67.71799 | 36002 ft | 519 kts | 207° |
| 2026-05-08 16:49 | 15.34693 | -67.75133 | 36001 ft | 519 kts | 207° |
| 2026-05-08 16:50 | 15.28226 | -67.78462 | 36000 ft | 519 kts | 207° |
| 2026-05-08 16:50 | 15.21765 | -67.81786 | 35998 ft | 519 kts | 207° |
| 2026-05-08 16:51 | 15.15292 | -67.85113 | 35998 ft | 519 kts | 207° |
| 2026-05-08 16:51 | 15.08867 | -67.88412 | 35994 ft | 519 kts | 207° |
| 2026-05-08 16:52 | 15.02401 | -67.91730 | 35996 ft | 518 kts | 207° |
| 2026-05-08 16:52 | 14.99468 | -67.93235 | 35998 ft | 518 kts | 207° |
| 2026-05-08 16:53 | 14.91750 | -67.97191 | 35995 ft | 519 kts | 207° |
| 2026-05-08 16:53 | 14.85263 | -68.00515 | 35990 ft | 518 kts | 207° |
| 2026-05-08 16:54 | 14.78812 | -68.03817 | 35992 ft | 518 kts | 207° |
| 2026-05-08 16:54 | 14.72356 | -68.07120 | 35991 ft | 517 kts | 207° |
| 2026-05-08 16:55 | 14.65938 | -68.10401 | 35989 ft | 517 kts | 207° |
| 2026-05-08 16:55 | 14.59490 | -68.13696 | 35990 ft | 517 kts | 207° |
| 2026-05-08 16:56 | 14.53027 | -68.16996 | 35989 ft | 517 kts | 207° |
| 2026-05-08 16:56 | 14.46578 | -68.20286 | 35984 ft | 517 kts | 207° |
| 2026-05-08 16:57 | 14.40120 | -68.23579 | 35985 ft | 517 kts | 207° |
| 2026-05-08 16:57 | 14.33711 | -68.26845 | 35983 ft | 517 kts | 207° |
| 2026-05-08 16:58 | 14.27250 | -68.30136 | 35980 ft | 517 kts | 207° |
| 2026-05-08 16:58 | 14.20789 | -68.33424 | 35978 ft | 517 kts | 207° |
| 2026-05-08 16:59 | 14.14338 | -68.36705 | 35982 ft | 517 kts | 207° |
| 2026-05-08 16:59 | 14.07893 | -68.39981 | 35931 ft | 518 kts | 207° |
| 2026-05-08 17:00 | 14.04624 | -68.41643 | 35021 ft | 530 kts | 206° |
| 2026-05-08 17:00 | 14.01310 | -68.43326 | 34155 ft | 521 kts | 206° |
| 2026-05-08 17:00 | 13.98105 | -68.44953 | 33187 ft | 510 kts | 206° |
| 2026-05-08 17:00 | 13.94907 | -68.46575 | 32259 ft | 514 kts | 206° |
| 2026-05-08 17:01 | 13.91689 | -68.48208 | 31272 ft | 519 kts | 206° |
| 2026-05-08 17:01 | 13.88459 | -68.49846 | 30549 ft | 523 kts | 207° |
| 2026-05-08 17:01 | 13.85212 | -68.51492 | 30391 ft | 520 kts | 207° |
| 2026-05-08 17:01 | 13.81959 | -68.53141 | 29991 ft | 523 kts | 207° |
| 2026-05-08 17:02 | 13.78689 | -68.54799 | 29524 ft | 524 kts | 207° |
| 2026-05-08 17:02 | 13.75411 | -68.56460 | 29115 ft | 525 kts | 206° |
| 2026-05-08 17:02 | 13.72141 | -68.58116 | 28801 ft | 523 kts | 206° |
| 2026-05-08 17:02 | 13.68883 | -68.59766 | 28126 ft | 521 kts | 206° |
| 2026-05-08 17:03 | 13.65641 | -68.61407 | 27476 ft | 516 kts | 206° |
| 2026-05-08 17:03 | 13.62453 | -68.63020 | 26832 ft | 511 kts | 206° |
| 2026-05-08 17:03 | 13.59248 | -68.64641 | 26197 ft | 506 kts | 206° |
| 2026-05-08 17:03 | 13.56098 | -68.66234 | 25563 ft | 502 kts | 206° |
| 2026-05-08 17:04 | 13.52969 | -68.67816 | 24923 ft | 499 kts | 206° |
| 2026-05-08 17:04 | 13.49866 | -68.69384 | 24295 ft | 496 kts | 206° |
| 2026-05-08 17:04 | 13.46777 | -68.70945 | 23663 ft | 493 kts | 205° |
| 2026-05-08 17:04 | 13.43701 | -68.72499 | 22952 ft | 491 kts | 205° |
| 2026-05-08 17:05 | 13.40688 | -68.74020 | 22307 ft | 486 kts | 205° |
| 2026-05-08 17:05 | 13.37672 | -68.75542 | 21684 ft | 481 kts | 205° |
| 2026-05-08 17:05 | 13.35654 | -68.76561 | 21266 ft | 477 kts | 205° |
| 2026-05-08 17:05 | 13.32738 | -68.78034 | 20649 ft | 453 kts | 205° |
| 2026-05-08 17:06 | 13.29129 | -68.79857 | 19942 ft | 428 kts | 205° |
| 2026-05-08 17:06 | 13.27328 | -68.80765 | 19591 ft | 428 kts | 205° |
| 2026-05-08 17:06 | 13.24646 | -68.82116 | 19043 ft | 430 kts | 205° |
| 2026-05-08 17:06 | 13.21954 | -68.83472 | 18490 ft | 431 kts | 205° |
| 2026-05-08 17:07 | 13.19256 | -68.84830 | 17870 ft | 431 kts | 205° |
| 2026-05-08 17:07 | 13.16579 | -68.86177 | 17301 ft | 428 kts | 205° |
| 2026-05-08 17:07 | 13.13918 | -68.87518 | 16757 ft | 425 kts | 205° |
| 2026-05-08 17:07 | 13.11270 | -68.88852 | 16193 ft | 422 kts | 205° |
| 2026-05-08 17:08 | 13.08679 | -68.90156 | 15656 ft | 419 kts | 205° |
| 2026-05-08 17:08 | 13.06072 | -68.91468 | 15117 ft | 417 kts | 205° |
| 2026-05-08 17:08 | 13.03469 | -68.92778 | 14568 ft | 415 kts | 205° |
| 2026-05-08 17:08 | 13.00879 | -68.94081 | 14021 ft | 413 kts | 205° |
| 2026-05-08 17:09 | 12.98304 | -68.95377 | 13439 ft | 412 kts | 205° |
| 2026-05-08 17:09 | 12.95736 | -68.96668 | 12859 ft | 409 kts | 205° |
| 2026-05-08 17:09 | 12.93185 | -68.97952 | 12312 ft | 407 kts | 205° |
| 2026-05-08 17:09 | 12.90649 | -68.99226 | 11771 ft | 404 kts | 205° |
| 2026-05-08 17:10 | 12.88140 | -69.00487 | 11240 ft | 401 kts | 205° |
| 2026-05-08 17:10 | 12.85712 | -69.01709 | 10996 ft | 370 kts | 205° |
| 2026-05-08 17:10 | 12.83506 | -69.02819 | 10817 ft | 338 kts | 205° |
| 2026-05-08 17:10 | 12.81486 | -69.03834 | 10666 ft | 310 kts | 205° |
| 2026-05-08 17:11 | 12.79605 | -69.04779 | 10540 ft | 295 kts | 204° |
| 2026-05-08 17:11 | 12.77789 | -69.05688 | 10431 ft | 286 kts | 205° |
| 2026-05-08 17:11 | 12.76013 | -69.06578 | 10319 ft | 286 kts | 204° |
| 2026-05-08 17:11 | 12.74178 | -69.07497 | 10237 ft | 303 kts | 204° |
| 2026-05-08 17:12 | 12.72259 | -69.08457 | 10110 ft | 307 kts | 205° |
| 2026-05-08 17:12 | 12.70342 | -69.09418 | 9860 ft | 307 kts | 205° |
| 2026-05-08 17:12 | 12.68424 | -69.10380 | 9519 ft | 306 kts | 204° |
| 2026-05-08 17:12 | 12.66514 | -69.11338 | 9179 ft | 305 kts | 204° |
| 2026-05-08 17:13 | 12.64605 | -69.12295 | 8850 ft | 304 kts | 204° |
| 2026-05-08 17:13 | 12.62710 | -69.13245 | 8512 ft | 303 kts | 204° |
| 2026-05-08 17:13 | 12.60843 | -69.14180 | 8203 ft | 301 kts | 204° |
| 2026-05-08 17:13 | 12.58966 | -69.15120 | 7883 ft | 300 kts | 204° |
| 2026-05-08 17:14 | 12.57093 | -69.16058 | 7558 ft | 299 kts | 204° |
| 2026-05-08 17:14 | 12.55221 | -69.16843 | 7210 ft | 281 kts | 187° |
| 2026-05-08 17:14 | 12.53360 | -69.16880 | 6949 ft | 263 kts | 173° |
| 2026-05-08 17:14 | 12.51536 | -69.16759 | 6674 ft | 262 kts | 173° |
| 2026-05-08 17:15 | 12.49717 | -69.16649 | 6385 ft | 262 kts | 173° |
| 2026-05-08 17:15 | 12.47901 | -69.16539 | 6092 ft | 261 kts | 173° |
| 2026-05-08 17:15 | 12.46087 | -69.16431 | 5794 ft | 261 kts | 173° |
| 2026-05-08 17:15 | 12.44277 | -69.16325 | 5499 ft | 260 kts | 173° |
| 2026-05-08 17:16 | 12.42479 | -69.16220 | 5214 ft | 259 kts | 173° |
| 2026-05-08 17:16 | 12.40682 | -69.16117 | 4938 ft | 258 kts | 173° |
| 2026-05-08 17:16 | 12.38882 | -69.16012 | 4649 ft | 259 kts | 173° |
| 2026-05-08 17:16 | 12.37083 | -69.15909 | 4359 ft | 261 kts | 173° |
| 2026-05-08 17:17 | 12.35263 | -69.15803 | 4061 ft | 261 kts | 172° |
| 2026-05-08 17:17 | 12.33458 | -69.15699 | 3776 ft | 260 kts | 173° |
| 2026-05-08 17:17 | 12.31656 | -69.15597 | 3474 ft | 259 kts | 173° |
| 2026-05-08 17:17 | 12.29877 | -69.15495 | 3198 ft | 257 kts | 172° |
| 2026-05-08 17:18 | 12.28115 | -69.15403 | 2965 ft | 243 kts | 172° |
| 2026-05-08 17:18 | 12.26515 | -69.15310 | 2871 ft | 227 kts | 172° |
| 2026-05-08 17:18 | 12.25010 | -69.15223 | 2710 ft | 207 kts | 169° |
| 2026-05-08 17:18 | 12.23777 | -69.14761 | 2617 ft | 180 kts | 132° |
| 2026-05-08 17:19 | 12.23131 | -69.13711 | 2568 ft | 174 kts | 112° |
| 2026-05-08 17:19 | 12.22671 | -69.12567 | 2505 ft | 173 kts | 109° |
| 2026-05-08 17:19 | 12.22284 | -69.11428 | 2479 ft | 165 kts | 108° |
| 2026-05-08 17:19 | 12.21955 | -69.10349 | 2505 ft | 155 kts | 104° |
| 2026-05-08 17:20 | 12.21701 | -69.09295 | 2442 ft | 152 kts | 102° |
| 2026-05-08 17:20 | 12.21471 | -69.08237 | 2282 ft | 154 kts | 102° |
| 2026-05-08 17:20 | 12.21233 | -69.07149 | 2056 ft | 151 kts | 101° |
| 2026-05-08 17:20 | 12.21018 | -69.06112 | 1848 ft | 145 kts | 102° |
| 2026-05-08 17:21 | 12.20821 | -69.05155 | 1676 ft | 129 kts | 102° |
| 2026-05-08 17:21 | 12.20626 | -69.04221 | 1456 ft | 136 kts | 101° |
| 2026-05-08 17:21 | 12.20436 | -69.03287 | 1262 ft | 131 kts | 101° |
| 2026-05-08 17:21 | 12.20274 | -69.02417 | 1035 ft | 121 kts | 103° |
| 2026-05-08 17:22 | 12.20085 | -69.01599 | 890 ft | 124 kts | 105° |
| 2026-05-08 17:22 | 12.19883 | -69.00722 | 821 ft | 128 kts | 105° |
| 2026-05-08 17:22 | 12.19700 | -68.99870 | 636 ft | 120 kts | 103° |
| 2026-05-08 17:22 | 12.19508 | -68.98983 | 505 ft | 130 kts | 100° |
| 2026-05-08 17:23 | 12.19335 | -68.98063 | 314 ft | 134 kts | 103° |
| 2026-05-08 17:23 | 12.19130 | -68.97135 | 137 ft | 132 kts | 101° |
| 2026-05-08 17:23 | 12.18948 | -68.96229 | 47 ft | 124 kts | 101° |
| 2026-05-08 17:23 | 12.18770 | -68.95405 | 47 ft | 101 kts | 102° |
| 2026-05-08 17:24 | 12.18667 | -68.94912 | 48 ft | 53 kts | 102° |
| 2026-05-08 17:24 | 12.18592 | -68.94569 | 47 ft | 32 kts | 102° |
| 2026-05-08 17:24 | 12.18505 | -68.94469 | 47 ft | 8 kts | 193° |
| 2026-05-08 17:24 | 12.18419 | -68.94508 | 50 ft | 17 kts | 233° |
| 2026-05-08 17:25 | 12.18418 | -68.94579 | 50 ft | 10 kts | 278° |
| 2026-05-08 17:25 | 12.18433 | -68.94654 | 50 ft | 13 kts | 282° |
| 2026-05-08 17:25 | 12.18466 | -68.94806 | 49 ft | 32 kts | 282° |
| 2026-05-08 17:25 | 12.18503 | -68.94976 | 49 ft | 9 kts | 283° |
| 2026-05-08 17:26 | 12.18518 | -68.95040 | 49 ft | 10 kts | 283° |
| 2026-05-08 17:26 | 12.18535 | -68.95118 | 49 ft | 13 kts | 283° |
| 2026-05-08 17:26 | 12.18558 | -68.95229 | 48 ft | 18 kts | 282° |
| 2026-05-08 17:26 | 12.18586 | -68.95354 | 48 ft | 18 kts | 282° |
| 2026-05-08 17:27 | 12.18610 | -68.95480 | 46 ft | 18 kts | 281° |
| 2026-05-08 17:27 | 12.18625 | -68.95563 | 47 ft | 4 kts | 280° |
| 2026-05-08 17:27 | 12.18631 | -68.95602 | 47 ft | 8 kts | 280° |
| 2026-05-08 17:27 | 12.18634 | -68.95659 | 47 ft | 8 kts | 276° |
| 2026-05-08 17:28 | 12.18651 | -68.95720 | 47 ft | 10 kts | 285° |
| 2026-05-08 17:28 | 12.18644 | -68.95791 | 47 ft | 10 kts | 223° |
| 2026-05-08 17:28 | 12.18582 | -68.95807 | 47 ft | 2 kts | 190° |
| 2026-05-08 17:28 | 12.18578 | -68.95808 | 47 ft | 0 kts | 190° |